Time;durP1;ratioP1;P1;durP2;ratioP2;P2;SDS_P1;SDS_P2;PMS_P1;PMS_P2;Temp;Humidity;BMP_temperature;BMP_pressure;BME280_temperature;BME280_humidity;BME280_pressure;Samples;Min_cycle;Max_cycle;Signal;HPM_P1;HPM_P2
2023/06/09 06:43:15;;;;;;;22.88;12.10;;;20.40;99.90;;;;;;4116718;28;20213;-93
2023/06/09 06:45:35;;;;;;;19.67;11.93;;;20.50;99.90;;;;;;4103388;28;20366;-93
2023/06/09 06:47:35;;;;;;;23.88;11.63;;;20.70;99.90;;;;;;4117338;28;20202;-95
2023/06/09 06:49:36;;;;;;;19.77;11.75;;;20.80;99.90;;;;;;4101462;28;20266;-94
2023/06/09 06:51:37;;;;;;;28.08;12.40;;;20.90;99.90;;;;;;4102086;28;20170;-94
2023/06/09 06:53:38;;;;;;;22.75;12.20;;;21.00;99.90;;;;;;4101347;28;20223;-95
2023/06/09 06:55:39;;;;;;;17.85;12.45;;;21.00;99.90;;;;;;4101429;28;20734;-92
2023/06/09 06:57:41;;;;;;;23.08;12.30;;;21.00;99.90;;;;;;4101531;28;20198;-91
2023/06/09 06:59:41;;;;;;;18.77;11.25;;;21.00;99.90;;;;;;4101749;28;20694;-93
2023/06/09 07:01:42;;;;;;;24.58;11.77;;;21.20;99.90;;;;;;4116905;28;20189;-96
2023/06/09 07:03:43;;;;;;;15.95;11.00;;;21.40;99.90;;;;;;4101004;28;20175;-93
2023/06/09 07:05:44;;;;;;;15.50;10.80;;;21.50;99.90;;;;;;4101093;28;20175;-94
2023/06/09 07:07:45;;;;;;;19.83;11.82;;;21.50;99.90;;;;;;4117237;28;20186;-94
2023/06/09 07:09:46;;;;;;;21.88;11.48;;;21.70;99.90;;;;;;4117370;28;20635;-94
2023/06/09 07:11:47;;;;;;;22.67;10.40;;;22.00;99.90;;;;;;4101266;28;20171;-93
2023/06/09 07:13:48;;;;;;;20.73;10.68;;;22.20;99.90;;;;;;4100957;28;20186;-93
2023/06/09 07:15:48;;;;;;;14.13;10.10;;;23.20;99.90;;;;;;4100827;28;20173;-93
2023/06/09 07:17:49;;;;;;;16.88;10.15;;;24.40;99.90;;;;;;4100863;28;20563;-94
2023/06/09 07:19:50;;;;;;;20.02;10.30;;;25.50;99.90;;;;;;4100892;28;20167;-95
2023/06/09 07:21:51;;;;;;;15.88;9.80;;;26.70;99.90;;;;;;4101327;28;20175;-93
2023/06/09 07:23:52;;;;;;;17.42;10.65;;;27.60;99.90;;;;;;4101697;28;20167;-95
2023/06/09 07:25:52;;;;;;;20.98;10.30;;;27.70;99.90;;;;;;4100720;28;20183;-94
2023/06/09 07:27:53;;;;;;;20.23;10.23;;;27.60;99.90;;;;;;4117099;28;20264;-94
2023/06/09 07:29:54;;;;;;;18.92;10.52;;;27.70;99.90;;;;;;4116996;28;20174;-94
2023/06/09 07:31:55;;;;;;;22.20;9.68;;;27.70;99.90;;;;;;4117124;28;20181;-96
2023/06/09 07:33:55;;;;;;;17.58;10.43;;;27.60;99.90;;;;;;4116921;28;20178;-95
2023/06/09 07:35:56;;;;;;;26.08;9.95;;;27.80;99.90;;;;;;4100797;28;20179;-96
2023/06/09 07:37:58;;;;;;;13.63;9.73;;;28.30;99.90;;;;;;4100827;28;20186;-96
2023/06/09 07:39:58;;;;;;;21.13;9.75;;;28.80;99.90;;;;;;4101084;28;20238;-94
2023/06/09 07:42:00;;;;;;;13.73;9.95;;;29.00;99.90;;;;;;4116547;28;20178;-94
2023/06/09 07:44:02;;;;;;;16.90;10.00;;;28.70;99.90;;;;;;4100777;28;20178;-94
2023/06/09 07:46:02;;;;;;;18.52;9.75;;;28.90;99.90;;;;;;4100406;28;20568;-95
2023/06/09 07:48:03;;;;;;;15.73;9.57;;;29.10;99.90;;;;;;4101203;28;20178;-93
2023/06/09 07:50:06;;;;;;;17.85;9.50;;;29.20;99.90;;;;;;4116394;28;20213;-93
2023/06/09 07:52:08;;;;;;;20.15;9.95;;;29.00;99.90;;;;;;4100734;28;20182;-96
2023/06/09 07:54:09;;;;;;;19.77;9.10;;;29.10;99.90;;;;;;4100351;28;20174;-94
2023/06/09 07:56:10;;;;;;;15.93;9.15;;;29.40;99.90;;;;;;4100433;28;20211;-94
2023/06/09 07:58:10;;;;;;;18.48;9.10;;;29.60;99.90;;;;;;4116320;28;20191;-94
2023/06/09 08:00:13;;;;;;;13.80;9.18;;;29.60;99.90;;;;;;4101048;28;20182;-93
2023/06/09 08:02:14;;;;;;;17.23;9.40;;;29.30;99.90;;;;;;4116795;28;20174;-93
2023/06/09 08:04:15;;;;;;;16.70;9.38;;;29.20;99.90;;;;;;4100482;28;20213;-93
2023/06/09 08:06:41;;;;;;;14.70;8.85;;;29.10;99.90;;;;;;4116767;28;20233;-94
2023/06/09 08:10:58;;;;;;;12.90;8.45;;;29.70;99.90;;;;;;4114717;28;20213;-94
2023/06/09 08:13:00;;;;;;;16.65;9.30;;;29.90;99.90;;;;;;4084772;29;20176;-95
2023/06/09 08:15:01;;;;;;;15.85;8.90;;;30.00;99.90;;;;;;4100940;28;20206;-94
2023/06/09 08:17:02;;;;;;;17.52;9.13;;;30.20;99.90;;;;;;4085029;29;20222;-93
2023/06/09 08:19:03;;;;;;;15.68;9.30;;;30.30;99.90;;;;;;4084586;29;20218;-93
2023/06/09 08:21:05;;;;;;;11.23;8.30;;;30.30;99.90;;;;;;4100539;28;20185;-93
2023/06/09 08:23:07;;;;;;;16.15;8.07;;;30.90;99.90;;;;;;4084740;29;20211;-93
2023/06/09 08:25:09;;;;;;;15.73;8.48;;;31.40;99.90;;;;;;4084625;29;20171;-95
2023/06/09 08:27:10;;;;;;;16.20;8.88;;;31.70;99.90;;;;;;4100368;28;20209;-95
2023/06/09 08:29:11;;;;;;;14.48;9.52;;;31.60;99.90;;;;;;4084900;29;20649;-95
2023/06/09 08:31:12;;;;;;;19.05;8.30;;;31.30;99.90;;;;;;4085446;29;20199;-93
2023/06/09 08:33:13;;;;;;;21.17;8.55;;;30.90;99.90;;;;;;4100041;28;20636;-93
2023/06/09 08:35:13;;;;;;;11.90;8.48;;;30.30;99.90;;;;;;4101794;28;20174;-95
2023/06/09 08:37:15;;;;;;;17.50;8.80;;;29.80;99.90;;;;;;4100364;28;20219;-95
2023/06/09 08:39:16;;;;;;;20.35;9.10;;;29.60;99.90;;;;;;4100927;28;20190;-95
2023/06/09 08:41:21;;;;;;;17.63;8.63;;;29.60;99.90;;;;;;4084608;29;20175;-91
2023/06/09 08:43:22;;;;;;;13.52;8.32;;;29.40;99.90;;;;;;4084866;29;20274;-94
2023/06/09 08:45:24;;;;;;;11.23;7.53;;;29.80;99.90;;;;;;4084570;29;20168;-94
2023/06/09 08:47:26;;;;;;;27.58;7.95;;;30.50;99.90;;;;;;4084605;29;20192;-93
2023/06/09 08:49:28;;;;;;;18.95;6.85;;;30.80;99.90;;;;;;4100432;28;20201;-94
2023/06/09 08:51:30;;;;;;;12.45;7.15;;;31.20;99.90;;;;;;4084554;29;20175;-93
2023/06/09 08:53:31;;;;;;;15.93;8.20;;;30.50;99.90;;;;;;4084263;29;20241;-93
2023/06/09 08:55:32;;;;;;;15.18;8.18;;;30.40;99.90;;;;;;4084202;29;20671;-94
2023/06/09 08:59:47;;;;;;;12.48;7.25;;;31.80;99.90;;;;;;4130832;28;20200;-94
2023/06/09 09:01:49;;;;;;;10.52;7.60;;;32.00;99.90;;;;;;4132114;28;20169;-93
2023/06/09 09:03:50;;;;;;;11.90;7.15;;;31.90;99.90;;;;;;4116689;28;20177;-89
2023/06/09 09:05:51;;;;;;;11.68;7.15;;;31.80;99.90;;;;;;4115140;28;20170;-89
2023/06/09 09:07:52;;;;;;;14.13;7.47;;;31.80;99.90;;;;;;4100393;28;20270;-92
2023/06/09 09:09:52;;;;;;;12.25;7.18;;;31.70;99.90;;;;;;4103047;28;20206;-90
2023/06/09 09:11:58;;;;;;;14.27;6.93;;;31.80;99.90;;;;;;4103169;29;20167;-90
2023/06/09 09:14:08;;;;;;;9.27;6.88;;;31.80;99.90;;;;;;4119095;28;20232;-91
2023/06/09 09:16:15;;;;;;;11.15;6.95;;;31.40;99.90;;;;;;4118554;28;20317;-89
2023/06/09 09:18:17;;;;;;;13.63;7.20;;;30.80;99.90;;;;;;4118726;28;20241;-89
2023/06/09 09:20:18;;;;;;;14.23;6.82;;;30.60;99.90;;;;;;4118649;28;20181;-88
2023/06/09 09:22:18;;;;;;;12.50;5.97;;;30.20;99.90;;;;;;4102901;28;20178;-88
2023/06/09 09:24:19;;;;;;;9.43;6.10;;;30.20;99.90;;;;;;4102643;28;20178;-88
2023/06/09 09:26:27;;;;;;;13.45;6.03;;;30.30;99.90;;;;;;4102697;28;20195;-89
2023/06/09 09:28:38;;;;;;;10.13;5.70;;;30.80;99.90;;;;;;4118450;28;20658;-89
2023/06/09 09:30:41;;;;;;;8.82;6.10;;;30.90;99.90;;;;;;4118613;28;20546;-89
2023/06/09 09:32:42;;;;;;;7.70;5.70;;;31.20;99.90;;;;;;4118549;28;20174;-88
2023/06/09 09:34:47;;;;;;;13.70;6.15;;;31.20;99.90;;;;;;4102570;28;20261;-89
2023/06/09 09:36:54;;;;;;;14.07;5.80;;;31.40;99.90;;;;;;4118245;28;20622;-88
2023/06/09 09:38:56;;;;;;;15.18;6.25;;;31.10;99.90;;;;;;4118497;28;20682;-89
2023/06/09 09:40:59;;;;;;;10.07;5.97;;;31.20;99.90;;;;;;4118450;28;20210;-90
2023/06/09 09:43:02;;;;;;;9.43;5.80;;;31.30;99.90;;;;;;4102327;28;20186;-89
2023/06/09 09:45:04;;;;;;;11.93;5.78;;;31.10;99.90;;;;;;4118349;28;20178;-90
2023/06/09 09:47:06;;;;;;;12.30;5.45;;;30.70;99.90;;;;;;4102150;28;20253;-88
2023/06/09 09:49:07;;;;;;;13.52;5.40;;;30.60;99.90;;;;;;4118374;28;20189;-90
2023/06/09 09:51:11;;;;;;;11.38;6.22;;;30.50;99.90;;;;;;4102267;28;20167;-90
2023/06/09 09:53:12;;;;;;;13.15;5.45;;;30.10;99.90;;;;;;4118237;28;20185;-89
2023/06/09 09:55:13;;;;;;;11.35;4.95;;;30.70;99.90;;;;;;4118261;28;20205;-89
2023/06/09 09:57:14;;;;;;;10.15;5.40;;;31.00;99.90;;;;;;4102466;28;20583;-89
2023/06/09 09:59:15;;;;;;;8.30;5.70;;;31.00;99.90;;;;;;4118352;28;20186;-89
2023/06/09 10:01:21;;;;;;;7.05;5.80;;;31.00;99.90;;;;;;4102463;28;20599;-88
2023/06/09 10:03:22;;;;;;;7.47;5.18;;;30.70;99.90;;;;;;4118098;28;20209;-88
2023/06/09 10:05:24;;;;;;;7.70;5.30;;;30.90;99.90;;;;;;4102032;28;20177;-89
2023/06/09 10:07:29;;;;;;;10.65;5.75;;;31.50;99.90;;;;;;4102057;28;20271;-88
2023/06/09 10:09:31;;;;;;;6.65;5.50;;;31.90;99.90;;;;;;4117971;28;20213;-89
2023/06/09 10:11:31;;;;;;;9.48;5.63;;;31.50;99.90;;;;;;4102086;28;20170;-89
2023/06/09 10:13:33;;;;;;;8.15;5.30;;;31.30;99.90;;;;;;4101944;28;20221;-91
2023/06/09 10:15:34;;;;;;;10.65;5.00;;;31.70;99.90;;;;;;4102033;28;20179;-88
2023/06/09 10:17:36;;;;;;;9.90;4.88;;;31.80;99.90;;;;;;4101859;28;20300;-89
2023/06/09 10:19:37;;;;;;;5.75;5.00;;;31.90;99.90;;;;;;4117073;28;20170;-88
2023/06/09 10:21:41;;;;;;;7.90;5.20;;;31.90;99.90;;;;;;4101765;28;20186;-89
2023/06/09 10:23:43;;;;;;;5.38;4.82;;;32.10;99.90;;;;;;4117823;28;20233;-88
2023/06/09 10:25:48;;;;;;;11.68;4.80;;;30.90;99.90;;;;;;4117806;28;20182;-89
2023/06/09 10:27:50;;;;;;;5.45;4.70;;;30.30;99.90;;;;;;4101437;28;20237;-89
2023/06/09 10:29:51;;;;;;;9.57;5.65;;;29.80;99.90;;;;;;4117552;28;20304;-88
2023/06/09 10:31:53;;;;;;;9.48;5.32;;;30.00;99.90;;;;;;4117748;28;20198;-90
2023/06/09 10:33:54;;;;;;;9.25;4.70;;;30.30;99.90;;;;;;4101853;28;20191;-90
2023/06/09 10:35:58;;;;;;;6.38;4.00;;;30.00;99.90;;;;;;4101521;28;20234;-89
2023/06/09 10:37:59;;;;;;;4.63;3.92;;;29.80;99.90;;;;;;4117768;28;20174;-89
2023/06/09 10:40:36;;;;;;;7.00;4.60;;;29.30;99.90;;;;;;4101373;28;20179;-89
2023/06/09 10:43:06;;;;;;;5.63;4.10;;;29.30;99.90;;;;;;4098847;28;20190;-89
2023/06/09 10:45:13;;;;;;;6.00;4.13;;;29.20;99.90;;;;;;4101756;28;20178;-88
2023/06/09 10:47:46;;;;;;;5.65;4.53;;;29.50;99.90;;;;;;4117847;28;20323;-89
2023/06/09 10:49:49;;;;;;;7.85;4.47;;;29.70;99.90;;;;;;4101671;28;20183;-89
2023/06/09 10:51:50;;;;;;;6.30;4.20;;;29.70;99.90;;;;;;4101587;28;20167;-88
2023/06/09 10:54:15;;;;;;;10.38;4.25;;;29.60;99.90;;;;;;4101290;28;20758;-89
2023/06/09 10:56:40;;;;;;;5.30;4.28;;;29.30;99.90;;;;;;4101211;28;20218;-88
2023/06/09 10:58:41;;;;;;;10.93;4.15;;;29.10;99.90;;;;;;4117260;28;20215;-89
2023/06/09 11:01:08;;;;;;;8.32;4.05;;;29.30;99.90;;;;;;4101279;28;20163;-88
2023/06/09 11:03:09;;;;;;;5.78;3.85;;;29.40;99.90;;;;;;4117164;28;20201;-85
2023/06/09 11:05:10;;;;;;;7.55;4.13;;;29.30;99.90;;;;;;4101031;28;20167;-88
2023/06/09 11:07:16;;;;;;;22.38;5.80;;;29.20;99.90;;;;;;4101121;28;20285;-88
2023/06/09 11:09:17;;;;;;;13.95;4.05;;;29.20;99.90;;;;;;4116979;28;20177;-88
2023/06/09 11:11:18;;;;;;;8.15;4.25;;;29.40;99.90;;;;;;4101189;28;20187;-88
2023/06/09 11:13:39;;;;;;;9.30;4.03;;;29.60;99.90;;;;;;4101082;28;20167;-88
2023/06/09 11:15:57;;;;;;;5.82;3.85;;;29.60;99.90;;;;;;4100894;28;20191;-87
2023/06/09 11:18:15;;;;;;;7.88;3.85;;;29.60;99.90;;;;;;4101237;28;20679;-87
2023/06/09 11:20:18;;;;;;;6.40;3.67;;;29.80;99.90;;;;;;4101067;29;20178;-89
2023/06/09 11:22:18;;;;;;;4.57;3.80;;;29.50;99.90;;;;;;4117081;28;20184;-89
2023/06/09 11:24:19;;;;;;;5.25;3.97;;;29.50;99.90;;;;;;4117025;28;20194;-89
2023/06/09 11:26:24;;;;;;;5.35;4.20;;;29.70;99.90;;;;;;4101126;28;20201;-92
2023/06/09 11:28:25;;;;;;;5.75;3.78;;;29.70;99.90;;;;;;4116657;28;20201;-89
2023/06/09 11:30:27;;;;;;;9.77;4.07;;;29.80;99.90;;;;;;4100744;28;20254;-91
2023/06/09 11:32:47;;;;;;;12.52;3.67;;;29.70;99.90;;;;;;4100861;28;20187;-89
2023/06/09 11:34:55;;;;;;;5.38;3.70;;;29.80;99.90;;;;;;4116799;28;20516;-90
2023/06/09 11:36:56;;;;;;;9.18;3.92;;;29.80;99.90;;;;;;4100722;28;20233;-91
2023/06/09 11:39:03;;;;;;;7.15;4.25;;;29.40;99.90;;;;;;4116657;28;20651;-91
2023/06/09 11:41:08;;;;;;;8.80;4.07;;;29.30;99.90;;;;;;4100681;28;20535;-89
2023/06/09 11:43:10;;;;;;;6.35;3.85;;;29.30;99.90;;;;;;4116629;28;20174;-91
2023/06/09 11:45:11;;;;;;;9.00;4.05;;;29.50;99.90;;;;;;4116619;28;20185;-92
2023/06/09 11:47:29;;;;;;;11.55;4.28;;;29.80;99.90;;;;;;4100623;28;20667;-91
2023/06/09 11:49:29;;;;;;;6.85;4.28;;;30.30;99.90;;;;;;4116552;28;20166;-90
2023/06/09 11:51:59;;;;;;;5.75;3.97;;;30.40;99.90;;;;;;4100518;28;20175;-93
2023/06/09 11:54:00;;;;;;;6.10;3.53;;;30.60;99.90;;;;;;4116249;28;20185;-93
2023/06/09 11:56:04;;;;;;;4.80;3.80;;;30.70;99.90;;;;;;4100222;28;20262;-90
2023/06/09 11:58:08;;;;;;;5.07;3.90;;;30.60;99.90;;;;;;4116349;28;20582;-90
2023/06/09 12:00:14;;;;;;;30.90;4.90;;;30.00;99.90;;;;;;4100348;28;20262;-91
2023/06/09 12:02:16;;;;;;;6.90;3.72;;;29.60;99.90;;;;;;4116404;28;20181;-90
2023/06/09 12:04:17;;;;;;;4.88;3.70;;;29.50;99.90;;;;;;4116205;28;20174;-89
2023/06/09 12:06:18;;;;;;;19.15;3.95;;;29.40;99.90;;;;;;4100336;28;20201;-90
2023/06/09 12:08:19;;;;;;;5.13;4.03;;;29.50;99.90;;;;;;4100550;28;20194;-92
2023/06/09 12:10:22;;;;;;;9.18;4.07;;;29.70;99.90;;;;;;4100382;28;20175;-92
2023/06/09 12:12:23;;;;;;;7.75;3.85;;;29.90;99.90;;;;;;4116109;28;20628;-91
2023/06/09 12:14:24;;;;;;;15.68;4.32;;;30.00;99.90;;;;;;4100189;28;20186;-91
2023/06/09 12:16:24;;;;;;;8.25;3.88;;;30.00;99.90;;;;;;4099845;28;20305;-90
2023/06/09 12:18:25;;;;;;;7.65;3.97;;;29.90;99.90;;;;;;4100016;28;20179;-92
2023/06/09 12:20:35;;;;;;;5.40;4.22;;;29.90;99.90;;;;;;4100324;28;20175;-92
2023/06/09 12:22:39;;;;;;;14.32;4.20;;;30.00;99.90;;;;;;4100442;28;20321;-93
2023/06/09 12:24:40;;;;;;;4.75;3.78;;;30.20;99.90;;;;;;4100255;28;20170;-91
2023/06/09 12:26:44;;;;;;;10.07;3.85;;;30.00;99.90;;;;;;4116127;28;20659;-95
2023/06/09 12:28:53;;;;;;;9.13;3.92;;;30.00;99.90;;;;;;4116027;28;20527;-93
2023/06/09 12:30:56;;;;;;;11.15;3.97;;;30.10;99.90;;;;;;4100227;28;20186;-90
2023/06/09 12:32:57;;;;;;;7.90;4.18;;;29.90;99.90;;;;;;4115953;28;20171;-91
2023/06/09 12:35:03;;;;;;;5.63;4.45;;;30.10;99.90;;;;;;4116176;28;20182;-91
2023/06/09 12:37:05;;;;;;;5.40;4.03;;;30.30;99.90;;;;;;4115896;28;20233;-90
2023/06/09 12:39:17;;;;;;;4.97;3.80;;;30.30;99.90;;;;;;4116011;28;20265;-92
2023/06/09 12:43:43;;;;;;;5.47;3.60;;;30.10;99.90;;;;;;4123487;28;20209;-92
2023/06/09 12:45:52;;;;;;;7.55;3.72;;;30.40;99.90;;;;;;4120127;28;20169;-92
2023/06/09 12:47:55;;;;;;;10.95;4.57;;;30.70;99.90;;;;;;4106290;28;20283;-91
2023/06/09 12:50:22;;;;;;;8.55;4.13;;;30.60;99.90;;;;;;4124324;28;20174;-95
2023/06/09 12:52:22;;;;;;;6.90;4.07;;;30.50;99.90;;;;;;4124091;28;20171;-93
2023/06/09 12:54:25;;;;;;;6.90;3.85;;;30.50;99.90;;;;;;4104799;28;20226;-91
2023/06/09 12:56:30;;;;;;;5.60;4.60;;;30.80;99.90;;;;;;4120214;28;20198;-93
2023/06/09 12:58:36;;;;;;;6.40;3.85;;;30.60;99.90;;;;;;4101826;28;20269;-92
2023/06/09 13:00:39;;;;;;;7.95;3.80;;;30.50;99.90;;;;;;4113461;28;20158;-92
2023/06/09 13:02:40;;;;;;;12.57;3.75;;;30.50;99.90;;;;;;4119606;28;20208;-92
2023/06/09 13:04:47;;;;;;;8.93;3.88;;;30.50;99.90;;;;;;4106459;28;20171;-92
2023/06/09 13:06:49;;;;;;;7.50;4.35;;;30.50;99.90;;;;;;4123240;28;20210;-93
2023/06/09 13:08:51;;;;;;;10.50;3.58;;;30.40;99.90;;;;;;4122164;28;20154;-92
2023/06/09 13:10:51;;;;;;;8.32;4.10;;;30.20;99.90;;;;;;4120455;28;20209;-96
2023/06/09 13:12:53;;;;;;;5.75;3.80;;;30.30;99.90;;;;;;4103792;29;20182;-91
2023/06/09 13:14:55;;;;;;;7.30;4.05;;;30.30;99.90;;;;;;4106083;28;20190;-90
2023/06/09 13:16:56;;;;;;;5.95;3.95;;;30.60;99.90;;;;;;4123120;28;20620;-92
2023/06/09 13:18:58;;;;;;;5.25;3.38;;;30.20;99.90;;;;;;4117532;28;20200;-94
2023/06/09 13:20:59;;;;;;;6.15;3.50;;;30.30;99.90;;;;;;4110157;28;20648;-92
2023/06/09 13:23:01;;;;;;;5.28;3.70;;;30.70;99.90;;;;;;4120602;28;20166;-90
2023/06/09 13:25:01;;;;;;;6.88;3.33;;;31.10;99.90;;;;;;4102090;29;20221;-92
2023/06/09 13:27:03;;;;;;;5.60;3.25;;;31.20;99.90;;;;;;4121634;28;20206;-96
2023/06/09 13:29:05;;;;;;;4.28;3.30;;;31.20;99.90;;;;;;4103687;28;20269;-92
2023/06/09 13:31:06;;;;;;;5.95;4.22;;;31.20;99.90;;;;;;4101639;29;20247;-91
2023/06/09 13:33:07;;;;;;;6.53;3.47;;;31.30;99.90;;;;;;4104080;29;20188;-96
2023/06/09 13:35:08;;;;;;;10.68;3.85;;;31.30;99.90;;;;;;4103739;28;20287;-96
2023/06/09 13:37:09;;;;;;;5.65;3.67;;;31.20;99.90;;;;;;4104697;28;20215;-94
2023/06/09 13:39:10;;;;;;;5.32;3.80;;;31.00;99.90;;;;;;4107787;29;20210;-93
2023/06/09 13:41:13;;;;;;;9.10;3.67;;;31.10;99.90;;;;;;4103233;28;20183;-92
2023/06/09 13:43:16;;;;;;;15.20;3.88;;;31.10;99.90;;;;;;4103781;28;20187;-95
2023/06/09 13:45:17;;;;;;;8.55;3.75;;;31.10;99.90;;;;;;4105603;28;20167;-96
2023/06/09 13:47:18;;;;;;;8.77;4.10;;;31.20;99.90;;;;;;4119974;28;20209;-92
2023/06/09 13:49:19;;;;;;;12.40;4.10;;;31.30;99.90;;;;;;4102857;29;20294;-92
2023/06/09 13:51:19;;;;;;;6.18;3.70;;;31.30;99.90;;;;;;4117347;28;20190;-92
2023/06/09 13:53:23;;;;;;;3.80;3.40;;;30.90;99.90;;;;;;4102621;29;20155;-90
2023/06/09 13:55:25;;;;;;;7.68;3.40;;;31.00;99.90;;;;;;4105479;28;20203;-92
2023/06/09 13:57:28;;;;;;;10.13;3.80;;;30.70;99.90;;;;;;4105283;28;20754;-92
2023/06/09 13:59:29;;;;;;;8.40;4.18;;;30.50;99.90;;;;;;4105741;29;20179;-96
2023/06/09 14:01:32;;;;;;;9.57;3.72;;;30.30;99.90;;;;;;4107832;29;20660;-96
2023/06/09 14:03:33;;;;;;;8.38;3.78;;;30.00;99.90;;;;;;4105851;29;20210;-94
2023/06/09 14:05:34;;;;;;;5.53;3.63;;;29.90;99.90;;;;;;4106653;28;20656;-96
2023/06/09 14:07:35;;;;;;;6.03;3.65;;;30.20;99.90;;;;;;4124131;28;20202;-96
2023/06/09 14:09:36;;;;;;;5.45;3.60;;;30.70;99.90;;;;;;4105589;28;20606;-91
2023/06/09 14:11:38;;;;;;;6.15;3.67;;;31.00;99.90;;;;;;4122722;28;20178;-92
2023/06/09 14:13:39;;;;;;;6.32;4.03;;;31.30;99.90;;;;;;4107207;28;20242;-93
2023/06/09 14:15:40;;;;;;;4.35;3.83;;;31.10;99.90;;;;;;4108317;29;20191;-95
2023/06/09 14:17:47;;;;;;;7.18;3.67;;;31.30;99.90;;;;;;4121508;28;20312;-92
2023/06/09 14:19:48;;;;;;;5.03;3.80;;;31.40;99.90;;;;;;4106570;29;20252;-93
2023/06/09 14:21:49;;;;;;;6.43;4.07;;;31.10;99.90;;;;;;4126161;28;20186;-91
2023/06/09 14:23:50;;;;;;;6.50;4.18;;;31.20;99.90;;;;;;4121512;28;20675;-91
2023/06/09 14:25:52;;;;;;;6.03;3.90;;;31.00;99.90;;;;;;4123709;28;20245;-96
2023/06/09 14:27:58;;;;;;;6.22;4.07;;;30.50;99.90;;;;;;4122424;28;20253;-95
2023/06/09 14:30:00;;;;;;;10.60;3.85;;;30.30;99.90;;;;;;4106908;28;20186;-92
2023/06/09 14:32:02;;;;;;;7.72;4.03;;;30.30;99.90;;;;;;4126233;28;20203;-95
2023/06/09 14:34:03;;;;;;;11.70;4.10;;;30.30;99.90;;;;;;4122032;28;20225;-91
2023/06/09 14:36:05;;;;;;;12.48;3.75;;;30.20;99.90;;;;;;4104525;28;20171;-95
2023/06/09 14:38:07;;;;;;;5.53;3.72;;;30.30;99.90;;;;;;4122295;28;20201;-92
2023/06/09 14:40:09;;;;;;;8.23;3.97;;;30.40;99.90;;;;;;4123089;28;20329;-95
2023/06/09 14:42:10;;;;;;;7.10;3.85;;;30.60;99.90;;;;;;4109083;29;20246;-94
2023/06/09 14:44:11;;;;;;;13.07;4.20;;;30.80;99.90;;;;;;4107310;29;20187;-93
2023/06/09 14:46:14;;;;;;;5.97;3.70;;;31.00;99.90;;;;;;4105899;28;20186;-92
2023/06/09 14:48:16;;;;;;;8.18;3.60;;;31.00;99.90;;;;;;4107395;29;20175;-90
2023/06/09 14:50:22;;;;;;;6.78;3.53;;;31.30;99.90;;;;;;4122595;28;20174;-95
2023/06/09 14:52:23;;;;;;;6.35;3.83;;;30.90;99.90;;;;;;4119236;28;20650;-92
2023/06/09 14:54:24;;;;;;;4.47;3.70;;;30.40;99.90;;;;;;4106026;29;20171;-95
2023/06/09 14:56:27;;;;;;;4.80;3.58;;;30.10;99.90;;;;;;4119199;28;20202;-91
2023/06/09 14:58:28;;;;;;;7.80;4.10;;;30.20;99.90;;;;;;4105392;29;20178;-91
2023/06/09 15:00:31;;;;;;;8.07;4.10;;;30.50;99.90;;;;;;4108272;29;20265;-96
2023/06/09 15:02:32;;;;;;;4.53;3.50;;;30.40;99.90;;;;;;4107818;29;20175;-92
2023/06/09 15:04:33;;;;;;;7.85;3.88;;;30.40;99.90;;;;;;4120600;28;20613;-92
2023/06/09 15:06:35;;;;;;;5.72;3.55;;;30.40;99.90;;;;;;4102596;28;20190;-92
2023/06/09 15:08:38;;;;;;;7.10;4.10;;;30.10;99.90;;;;;;4101550;28;20844;-92
2023/06/09 15:10:41;;;;;;;12.02;3.97;;;29.70;99.90;;;;;;4103228;29;20179;-92
2023/06/09 15:12:43;;;;;;;16.73;3.92;;;29.50;99.90;;;;;;4120467;28;20662;-93
2023/06/09 15:14:43;;;;;;;6.25;3.60;;;29.70;99.90;;;;;;4103602;29;20171;-92
2023/06/09 15:16:45;;;;;;;6.60;4.05;;;29.70;99.90;;;;;;4120761;28;20217;-96
2023/06/09 15:18:46;;;;;;;4.88;3.83;;;29.80;99.90;;;;;;4106902;29;20182;-96
2023/06/09 15:20:47;;;;;;;15.55;3.70;;;29.90;99.90;;;;;;4105101;29;20584;-92
2023/06/09 15:22:47;;;;;;;6.45;3.42;;;30.10;99.90;;;;;;4104692;29;20266;-91
2023/06/09 15:24:54;;;;;;;6.25;3.70;;;30.40;99.90;;;;;;4102250;29;20190;-94
2023/06/09 15:26:55;;;;;;;9.73;3.90;;;30.70;99.90;;;;;;4103147;28;20727;-95
2023/06/09 15:28:56;;;;;;;8.30;3.63;;;30.60;99.90;;;;;;4109608;28;20210;-91
2023/06/09 15:30:58;;;;;;;6.10;3.83;;;30.60;99.90;;;;;;4108512;29;20230;-92
2023/06/09 15:33:02;;;;;;;11.30;3.67;;;30.70;99.90;;;;;;4107003;29;20234;-90
2023/06/09 15:35:03;;;;;;;5.93;3.70;;;30.40;99.90;;;;;;4108309;29;20171;-92
2023/06/09 15:37:04;;;;;;;12.05;3.55;;;29.90;99.90;;;;;;4122784;28;20226;-90
2023/06/09 15:39:05;;;;;;;7.10;3.47;;;29.60;99.90;;;;;;4113147;28;20175;-92
2023/06/09 15:41:06;;;;;;;7.60;3.75;;;29.60;99.90;;;;;;4103487;29;20175;-91
2023/06/09 15:43:07;;;;;;;14.27;4.18;;;30.00;99.90;;;;;;4105846;28;20262;-95
2023/06/09 15:45:08;;;;;;;14.82;3.67;;;30.20;99.90;;;;;;4106583;28;20190;-92
2023/06/09 15:47:13;;;;;;;8.70;3.70;;;30.30;99.90;;;;;;4103319;29;20199;-92
2023/06/09 15:49:13;;;;;;;5.70;3.47;;;30.40;99.90;;;;;;4126189;28;20201;-92
2023/06/09 15:51:14;;;;;;;6.15;3.67;;;30.50;99.90;;;;;;4107875;29;20199;-96
2023/06/09 15:53:19;;;;;;;18.35;4.25;;;30.50;99.90;;;;;;4106693;28;20183;-90
2023/06/09 15:55:20;;;;;;;13.52;3.60;;;30.60;99.90;;;;;;4125007;28;20178;-95
2023/06/09 15:57:21;;;;;;;10.93;3.85;;;30.50;99.90;;;;;;4111434;28;20233;-93
2023/06/09 15:59:21;;;;;;;6.63;3.33;;;30.40;99.90;;;;;;4108412;29;20265;-91
2023/06/09 16:01:25;;;;;;;4.25;3.05;;;30.40;99.90;;;;;;4120994;28;20185;-89
2023/06/09 16:03:27;;;;;;;9.82;3.63;;;30.30;99.90;;;;;;4120348;28;20174;-93
2023/06/09 16:05:28;;;;;;;27.80;5.20;;;30.30;99.90;;;;;;4106244;29;20178;-95
2023/06/09 16:07:33;;;;;;;11.80;3.70;;;30.30;99.90;;;;;;4105046;28;20191;-90
2023/06/09 16:09:33;;;;;;;5.65;3.40;;;30.10;99.90;;;;;;4106385;29;20175;-96
2023/06/09 16:11:35;;;;;;;17.10;3.53;;;29.90;99.90;;;;;;4120409;28;20188;-89
2023/06/09 16:13:37;;;;;;;4.32;2.78;;;29.90;99.90;;;;;;4103373;29;20221;-94
2023/06/09 16:15:39;;;;;;;9.32;3.00;;;29.80;99.90;;;;;;4109662;29;20179;-94
2023/06/09 16:17:40;;;;;;;7.03;3.28;;;29.60;99.90;;;;;;4102852;28;20715;-93
2023/06/09 16:19:42;;;;;;;9.85;3.15;;;29.80;99.90;;;;;;4125085;28;20182;-93
2023/06/09 16:21:43;;;;;;;7.93;3.60;;;29.90;99.90;;;;;;4111151;29;20182;-93
2023/06/09 16:23:52;;;;;;;4.75;2.72;;;30.00;99.90;;;;;;4119487;28;20177;-91
2023/06/09 16:25:53;;;;;;;6.72;3.20;;;30.30;99.90;;;;;;4107134;28;20310;-95
2023/06/09 16:27:54;;;;;;;7.85;3.50;;;30.30;99.90;;;;;;4121365;28;20206;-96
2023/06/09 16:29:55;;;;;;;6.18;3.30;;;30.30;99.90;;;;;;4104241;29;20269;-92
2023/06/09 16:31:55;;;;;;;6.95;3.22;;;30.00;99.90;;;;;;4106436;29;20739;-92
2023/06/09 16:34:08;;;;;;;6.88;3.30;;;29.70;99.90;;;;;;4123559;28;20177;-95
2023/06/09 16:36:09;;;;;;;11.70;3.10;;;29.70;99.90;;;;;;4121144;28;20289;-91
2023/06/09 16:38:10;;;;;;;8.00;3.17;;;29.70;99.90;;;;;;4097846;29;20632;-95
2023/06/09 16:40:13;;;;;;;6.03;3.22;;;29.80;99.90;;;;;;4128154;28;20178;-91
2023/06/09 16:42:17;;;;;;;8.60;3.25;;;29.80;99.90;;;;;;4115137;29;20147;-95
2023/06/09 16:44:18;;;;;;;5.38;3.65;;;29.80;99.90;;;;;;4131112;28;20174;-96
2023/06/09 16:46:20;;;;;;;9.02;3.55;;;29.70;99.90;;;;;;4132218;28;20705;-93
2023/06/09 16:48:21;;;;;;;6.82;3.25;;;29.80;99.90;;;;;;4130577;28;20174;-94
2023/06/09 16:50:23;;;;;;;4.60;2.90;;;29.80;99.90;;;;;;4113455;29;20159;-95
2023/06/09 16:52:24;;;;;;;6.18;3.20;;;29.80;99.90;;;;;;4130136;28;20173;-95
2023/06/09 16:54:49;;;;;;;8.32;3.10;;;29.90;99.90;;;;;;4132357;28;20162;-94
2023/06/09 16:56:54;;;;;;;10.65;3.50;;;29.80;99.90;;;;;;4115820;28;20214;-94
2023/06/09 16:58:54;;;;;;;7.88;2.95;;;29.90;99.90;;;;;;4107913;28;20154;-91
2023/06/09 17:00:59;;;;;;;7.43;3.05;;;30.10;99.90;;;;;;4122171;28;20166;-92
2023/06/09 17:03:03;;;;;;;5.70;3.03;;;29.90;99.90;;;;;;4106763;29;20242;-92
2023/06/09 17:05:05;;;;;;;4.63;3.15;;;30.00;99.90;;;;;;4123056;28;20170;-93
2023/06/09 17:07:09;;;;;;;6.38;3.20;;;30.20;99.90;;;;;;4122240;28;20252;-92
2023/06/09 17:09:11;;;;;;;9.05;3.15;;;30.10;99.90;;;;;;4122561;28;20204;-90
2023/06/09 17:11:11;;;;;;;8.90;3.63;;;29.80;99.90;;;;;;4108686;29;20171;-90
2023/06/09 17:13:13;;;;;;;9.32;3.60;;;29.80;99.90;;;;;;4120707;28;20607;-90
2023/06/09 17:15:14;;;;;;;5.90;3.33;;;29.60;99.90;;;;;;4108055;28;20203;-95
2023/06/09 17:17:15;;;;;;;6.45;3.50;;;29.40;99.90;;;;;;4121081;28;20222;-93
2023/06/09 17:19:16;;;;;;;7.57;2.90;;;29.40;99.90;;;;;;4124990;28;20162;-92
2023/06/09 17:21:17;;;;;;;11.00;3.20;;;29.40;99.90;;;;;;4104870;29;20548;-90
2023/06/09 17:23:18;;;;;;;7.30;2.97;;;29.30;99.90;;;;;;4117365;28;20150;-93
2023/06/09 17:25:19;;;;;;;10.40;3.20;;;29.30;99.90;;;;;;4122574;28;20361;-95